Husk, North Carolina
Current Conditions -  °F | °C
As of 5:55 PM on Thursday 18 Dec 2014 (Local Time) from KGEV Reporting Station
Overcast Overcast  
Wind Chill: 34°   Ceiling: 3700
Heat Index: 40°   Visibility: 10mi
Dew Point:   Wind: 12mph
Humidity: 19%   Direction: 280°W
Pressure: 30.05"   Gusts: 20mph
Location:  36.524°N, 81.538°W
Report Text: KGEV 182255Z AUTO 28010G17KT 10SM OVC037 05/M18 A3005 RMK AO2 T00471176
Loading
Personal Weather Stations






























Interactive Weather Map New forecast layout! Learn more

10-Day Weather Forecast

Advertisements
Track Severe Weather on mobile